createdAt,value
2023-05-05T00:01:09.274Z,71.21
2023-05-05T00:03:36.296Z,71.04
2023-05-05T00:06:04.322Z,71.56
2023-05-05T00:08:31.110Z,72.75
2023-05-05T00:10:57.783Z,71.02
2023-05-05T00:13:24.760Z,71.05
2023-05-05T00:15:52.584Z,70.80
2023-05-05T00:18:19.672Z,71.54
2023-05-05T00:20:47.568Z,71.65
2023-05-05T00:23:17.885Z,72.03
2023-05-05T00:25:44.599Z,72.49
2023-05-05T00:28:11.543Z,73.09
2023-05-05T00:30:39.905Z,72.22
2023-05-05T00:33:06.726Z,73.81
2023-05-05T00:35:33.751Z,73.99
2023-05-05T00:38:00.484Z,72.97
2023-05-05T00:40:28.320Z,73.30
2023-05-05T00:42:54.956Z,73.53
2023-05-05T00:45:21.629Z,73.20
2023-05-05T00:47:51.540Z,73.17
2023-05-05T00:50:23.749Z,73.29
2023-05-05T00:52:51.810Z,73.65
2023-05-05T00:55:19.084Z,73.26
2023-05-05T00:57:45.978Z,74.29
2023-05-05T01:00:13.105Z,74.47
2023-05-05T01:02:40.183Z,73.79
2023-05-05T01:05:10.954Z,74.38
2023-05-05T01:07:43.570Z,74.28
2023-05-05T01:10:36.936Z,74.17
2023-05-05T01:13:15.646Z,75.69
2023-05-05T01:15:50.058Z,74.26
2023-05-05T01:18:38.166Z,73.75
2023-05-05T01:21:16.294Z,74.37
2023-05-05T01:24:00.938Z,74.44
2023-05-05T01:27:03.058Z,73.91
2023-05-05T01:29:51.409Z,73.68
2023-05-05T01:32:25.573Z,73.96
2023-05-05T01:35:05.410Z,73.42
2023-05-05T01:37:55.636Z,73.95
2023-05-05T01:40:26.813Z,73.61
2023-05-05T01:42:55.489Z,73.40
2023-05-05T01:45:28.076Z,73.72
2023-05-05T01:47:56.401Z,74.29
2023-05-05T01:50:24.522Z,74.44
2023-05-05T01:52:52.706Z,75.22
2023-05-05T01:55:20.744Z,75.46
2023-05-05T01:57:49.045Z,74.11
2023-05-05T02:00:18.001Z,74.16
2023-05-05T02:02:49.728Z,74.01
2023-05-05T02:05:19.509Z,75.28
2023-05-05T02:07:46.885Z,74.98
2023-05-05T02:10:14.449Z,75.48
2023-05-05T02:12:44.256Z,74.11
2023-05-05T02:15:12.652Z,74.37
2023-05-05T02:17:42.277Z,74.95
2023-05-05T02:20:11.840Z,74.45
2023-05-05T02:22:38.660Z,74.25
2023-05-05T02:25:06.165Z,74.13
2023-05-05T02:27:35.984Z,74.60
2023-05-05T02:30:08.604Z,74.99
2023-05-05T02:32:50.474Z,74.41
2023-05-05T02:35:22.489Z,74.26
2023-05-05T02:38:01.826Z,73.53
2023-05-05T02:40:35.253Z,74.49
2023-05-05T02:43:06.855Z,74.14
2023-05-05T02:45:33.844Z,73.94
2023-05-05T02:48:04.216Z,73.15
2023-05-05T02:50:34.240Z,73.75
2023-05-05T02:53:12.024Z,73.72
2023-05-05T02:55:50.612Z,73.80
2023-05-05T02:58:29.095Z,73.79
2023-05-05T03:01:16.050Z,73.61
2023-05-05T03:03:59.119Z,73.06
2023-05-05T03:06:28.545Z,74.02
2023-05-05T03:09:25.218Z,72.46
2023-05-05T03:12:03.918Z,73.26
2023-05-05T03:14:41.901Z,73.13
2023-05-05T03:17:12.567Z,71.80
2023-05-05T03:19:44.596Z,73.25
2023-05-05T03:22:11.603Z,74.59
2023-05-05T03:24:41.792Z,74.45
2023-05-05T03:27:10.278Z,72.36
2023-05-05T03:29:39.233Z,74.20
2023-05-05T03:32:10.440Z,74.45
2023-05-05T03:34:37.866Z,74.13
2023-05-05T03:37:05.736Z,74.66
2023-05-05T03:39:32.552Z,74.05
2023-05-05T03:41:59.792Z,73.89
2023-05-05T03:44:30.550Z,74.34
2023-05-05T03:46:57.200Z,73.45
2023-05-05T03:49:24.261Z,73.75
2023-05-05T03:51:51.784Z,74.17
2023-05-05T03:54:18.385Z,74.43
2023-05-05T03:56:45.059Z,74.05
2023-05-05T03:59:11.731Z,74.48
2023-05-05T04:01:38.694Z,74.58
2023-05-05T04:04:05.664Z,73.14
2023-05-05T04:06:32.736Z,73.97
2023-05-05T04:08:59.277Z,74.33
2023-05-05T04:11:26.260Z,73.59
2023-05-05T04:13:54.681Z,74.27
2023-05-05T04:16:21.986Z,72.50
2023-05-05T04:18:49.342Z,71.82
2023-05-05T04:21:17.423Z,73.05
2023-05-05T04:23:44.544Z,74.40
2023-05-05T04:26:11.373Z,73.68
2023-05-05T04:28:38.078Z,74.94
2023-05-05T04:31:05.229Z,74.61
2023-05-05T04:33:35.736Z,73.56
2023-05-05T04:36:02.770Z,74.66
2023-05-05T04:38:29.578Z,74.72
2023-05-05T04:40:56.499Z,73.89
2023-05-05T04:43:23.181Z,72.78
2023-05-05T04:45:56.315Z,73.02
2023-05-05T04:48:27.275Z,72.19
2023-05-05T04:50:53.955Z,72.06
2023-05-05T04:53:20.519Z,72.22
2023-05-05T04:55:47.215Z,72.07
2023-05-05T04:58:13.797Z,72.27
2023-05-05T05:00:40.725Z,72.64
2023-05-05T05:03:08.255Z,71.86
2023-05-05T05:05:34.861Z,72.20
2023-05-05T05:08:01.737Z,70.30
2023-05-05T05:10:28.692Z,70.31
2023-05-05T05:12:55.376Z,71.91
2023-05-05T05:15:22.063Z,72.67
2023-05-05T05:17:48.797Z,72.06
2023-05-05T05:20:15.548Z,71.90
2023-05-05T05:22:42.261Z,71.89
2023-05-05T05:25:13.515Z,72.70
2023-05-05T05:27:41.656Z,72.89
2023-05-05T05:30:09.812Z,72.75
2023-05-05T05:32:36.832Z,73.07
2023-05-05T05:35:03.966Z,73.32
2023-05-05T05:37:31.474Z,72.93
2023-05-05T05:39:59.093Z,72.85
2023-05-05T05:42:27.049Z,73.06
2023-05-05T05:44:53.779Z,71.89
2023-05-05T05:47:20.437Z,72.15
2023-05-05T05:49:47.122Z,70.50
2023-05-05T05:52:13.868Z,70.23
2023-05-05T05:54:40.960Z,71.47
2023-05-05T05:57:08.643Z,72.61
2023-05-05T05:59:35.360Z,71.25
2023-05-05T06:02:02.334Z,69.45
2023-05-05T06:04:30.885Z,68.65
2023-05-05T06:06:57.601Z,66.88
2023-05-05T06:09:25.249Z,63.50
2023-05-05T06:11:53.381Z,60.82
2023-05-05T06:14:20.706Z,61.37
2023-05-05T06:16:47.664Z,59.77
2023-05-05T06:19:18.778Z,58.74
2023-05-05T06:21:45.429Z,58.48
2023-05-05T06:24:12.082Z,55.72
2023-05-05T06:26:38.825Z,56.09
2023-05-05T06:29:05.469Z,57.71
2023-05-05T06:31:32.180Z,57.04
2023-05-05T06:33:58.817Z,56.92
2023-05-05T06:36:25.509Z,59.37
2023-05-05T06:38:52.228Z,60.50
2023-05-05T06:41:18.858Z,61.33
2023-05-05T06:43:45.945Z,59.83
2023-05-05T06:46:13.863Z,59.90
2023-05-05T06:48:40.593Z,59.57
2023-05-05T06:51:07.290Z,57.59
2023-05-05T06:53:33.923Z,57.04
2023-05-05T06:56:00.461Z,56.73
2023-05-05T06:58:27.131Z,56.71
2023-05-05T07:00:54.160Z,55.44
2023-05-05T07:03:20.920Z,56.04
2023-05-05T07:05:47.607Z,53.38
2023-05-05T07:08:14.795Z,54.56
2023-05-05T07:10:41.853Z,54.41
2023-05-05T07:13:08.556Z,52.37
2023-05-05T07:15:35.542Z,52.66
2023-05-05T07:18:02.343Z,53.09
2023-05-05T07:20:29.000Z,51.56
2023-05-05T07:22:55.926Z,50.82
2023-05-05T07:25:22.567Z,54.45
2023-05-05T07:27:49.233Z,55.10
2023-05-05T07:30:18.468Z,49.13
2023-05-05T07:32:46.109Z,53.83
2023-05-05T07:35:12.913Z,51.12
2023-05-05T07:37:39.570Z,50.93
2023-05-05T07:40:07.161Z,51.91
2023-05-05T07:42:33.880Z,50.49
2023-05-05T07:45:00.702Z,49.40
2023-05-05T07:47:27.327Z,48.75
2023-05-05T07:49:54.421Z,51.78
2023-05-05T07:52:30.002Z,46.17
2023-05-05T07:55:01.035Z,51.21
2023-05-05T07:57:28.414Z,45.87
2023-05-05T07:59:55.128Z,50.29
2023-05-05T08:02:21.952Z,43.58
2023-05-05T08:04:50.073Z,44.14
2023-05-05T08:07:16.756Z,43.98
2023-05-05T08:09:44.045Z,42.16
2023-05-05T08:12:12.262Z,42.97
2023-05-05T08:14:40.464Z,40.90
2023-05-05T08:17:07.452Z,42.80
2023-05-05T08:19:34.202Z,38.27
2023-05-05T08:22:01.591Z,38.42
2023-05-05T08:24:28.567Z,37.79
2023-05-05T08:26:56.152Z,34.42
2023-05-05T08:29:23.223Z,39.65
2023-05-05T08:31:49.866Z,33.23
2023-05-05T08:34:16.508Z,35.90
2023-05-05T08:36:44.062Z,32.13
2023-05-05T08:39:10.753Z,36.21
2023-05-05T08:41:37.424Z,34.16
2023-05-05T08:44:04.115Z,32.68
2023-05-05T08:46:31.153Z,36.16
2023-05-05T08:48:58.792Z,30.00
2023-05-05T08:51:31.377Z,35.68
2023-05-05T08:54:02.614Z,32.98
2023-05-05T08:56:36.197Z,32.58
2023-05-05T08:59:03.248Z,36.48
2023-05-05T09:01:32.234Z,33.95
2023-05-05T09:03:59.220Z,32.20
2023-05-05T09:06:27.357Z,33.59
2023-05-05T09:08:54.534Z,34.72
2023-05-05T09:11:22.590Z,34.98
2023-05-05T09:13:49.830Z,36.59
2023-05-05T09:16:16.507Z,33.43
2023-05-05T09:18:43.322Z,31.33
2023-05-05T09:21:24.610Z,32.19
2023-05-05T09:24:08.602Z,27.33
2023-05-05T09:26:43.488Z,29.03
2023-05-05T09:29:17.115Z,30.95
2023-05-05T09:31:43.917Z,29.57
2023-05-05T09:34:15.853Z,29.74
2023-05-05T09:36:44.744Z,32.34
2023-05-05T09:39:11.584Z,25.65
2023-05-05T09:41:43.578Z,23.80
2023-05-05T09:44:11.537Z,20.60
2023-05-05T09:46:49.042Z,24.39
2023-05-05T09:49:20.025Z,22.05
2023-05-05T09:51:47.616Z,19.47
2023-05-05T09:54:24.060Z,19.79
2023-05-05T09:56:52.528Z,22.88
2023-05-05T09:59:19.896Z,21.96
2023-05-05T10:01:47.431Z,21.01
2023-05-05T10:04:28.512Z,19.91
2023-05-05T10:06:58.885Z,20.80
2023-05-05T10:09:26.158Z,19.44
2023-05-05T10:11:53.840Z,21.43
2023-05-05T10:14:20.786Z,21.22
2023-05-05T10:16:50.651Z,20.08
2023-05-05T10:19:21.329Z,21.71
2023-05-05T10:21:51.169Z,20.40
2023-05-05T10:24:40.541Z,18.80
2023-05-05T10:27:20.042Z,20.68
2023-05-05T10:30:01.297Z,18.72
2023-05-05T10:32:56.066Z,20.22
2023-05-05T10:35:28.570Z,18.86
2023-05-05T10:37:55.964Z,22.26
2023-05-05T10:40:22.680Z,20.08
2023-05-05T10:42:50.860Z,19.20
2023-05-05T10:45:17.688Z,21.69
2023-05-05T10:47:44.581Z,20.38
2023-05-05T10:50:21.750Z,20.28
2023-05-05T10:53:24.083Z,19.98
2023-05-05T10:56:10.747Z,20.07
2023-05-05T10:58:51.649Z,21.43
2023-05-05T11:01:33.427Z,22.37
2023-05-05T11:04:35.873Z,22.04
2023-05-05T11:07:27.394Z,19.62
2023-05-05T11:09:55.999Z,20.72
2023-05-05T11:12:22.643Z,21.40
2023-05-05T11:15:27.611Z,18.64
2023-05-05T11:17:55.652Z,19.67
2023-05-05T11:20:40.542Z,17.25
2023-05-05T11:23:07.325Z,19.27
2023-05-05T11:25:37.555Z,19.18
2023-05-05T11:28:17.935Z,19.16
2023-05-05T11:30:57.180Z,21.30
2023-05-05T11:33:38.833Z,21.15
2023-05-05T11:36:07.155Z,19.57
2023-05-05T11:38:53.070Z,19.70
2023-05-05T11:41:32.026Z,21.41
2023-05-05T11:44:16.612Z,19.10
2023-05-05T11:46:52.390Z,20.57
2023-05-05T11:49:32.090Z,19.53
2023-05-05T11:52:02.597Z,20.00
2023-05-05T11:54:30.243Z,20.51
2023-05-05T11:57:08.395Z,19.95
2023-05-05T11:59:40.252Z,17.18
2023-05-05T12:02:06.965Z,19.06
2023-05-05T12:04:33.658Z,17.21
2023-05-05T12:07:00.605Z,18.67
2023-05-05T12:09:27.552Z,20.78
2023-05-05T12:11:58.386Z,19.13
2023-05-05T12:14:25.909Z,19.08
2023-05-05T12:17:07.101Z,18.71
2023-05-05T12:19:33.758Z,17.01
2023-05-05T12:22:04.704Z,17.28
2023-05-05T12:24:31.544Z,16.29
2023-05-05T12:27:08.792Z,18.12
2023-05-05T12:29:35.457Z,17.93
2023-05-05T12:32:02.164Z,18.02
2023-05-05T12:34:29.068Z,17.81
2023-05-05T12:36:55.954Z,19.27
2023-05-05T12:39:22.544Z,19.39
2023-05-05T12:41:49.691Z,21.02
2023-05-05T12:44:16.578Z,21.08
2023-05-05T12:46:47.455Z,22.81
2023-05-05T12:49:14.796Z,21.76
2023-05-05T12:51:56.956Z,24.04
2023-05-05T12:54:24.972Z,20.42
2023-05-05T12:56:51.643Z,21.17
2023-05-05T12:59:21.085Z,21.89
2023-05-05T13:01:58.418Z,22.48
2023-05-05T13:04:27.345Z,20.22
2023-05-05T13:07:11.088Z,19.87
2023-05-05T13:09:38.290Z,21.71
2023-05-05T13:12:05.164Z,20.94
2023-05-05T13:14:32.395Z,21.29
2023-05-05T13:16:59.069Z,20.28
2023-05-05T13:19:25.785Z,21.69
2023-05-05T13:21:53.133Z,20.34
2023-05-05T13:24:28.745Z,19.33
2023-05-05T13:27:02.923Z,19.74
2023-05-05T13:29:31.633Z,20.81
2023-05-05T13:31:58.830Z,18.87
2023-05-05T13:34:25.977Z,19.25
2023-05-05T13:36:52.705Z,21.16
2023-05-05T13:39:19.366Z,21.35
2023-05-05T13:41:46.055Z,20.32
2023-05-05T13:44:14.915Z,22.97
2023-05-05T13:46:42.710Z,22.81
2023-05-05T13:49:09.547Z,22.96
2023-05-05T13:51:36.970Z,26.39
2023-05-05T13:54:03.915Z,23.46
2023-05-05T13:56:30.681Z,24.48
2023-05-05T13:58:57.317Z,26.97
2023-05-05T14:01:24.063Z,24.32
2023-05-05T14:03:50.932Z,22.91
2023-05-05T14:06:17.649Z,22.39
2023-05-05T14:08:44.406Z,21.87
2023-05-05T14:11:11.110Z,20.53
2023-05-05T14:13:38.052Z,20.47
2023-05-05T14:16:05.760Z,19.29
2023-05-05T14:18:32.583Z,19.42
2023-05-05T14:20:59.186Z,20.49
2023-05-05T14:23:25.858Z,21.73
2023-05-05T14:25:52.515Z,23.56
2023-05-05T14:28:19.221Z,23.47
2023-05-05T14:30:46.653Z,23.73
2023-05-05T14:33:13.236Z,24.62
2023-05-05T14:35:39.981Z,26.90
2023-05-05T14:38:06.578Z,26.97
2023-05-05T14:40:33.233Z,26.07
2023-05-05T14:43:00.168Z,23.83
2023-05-05T14:45:29.436Z,24.55
2023-05-05T14:47:56.117Z,25.22
2023-05-05T14:50:22.715Z,26.72
2023-05-05T14:52:49.342Z,25.09
2023-05-05T14:55:15.958Z,26.81
2023-05-05T14:57:42.585Z,25.86
2023-05-05T15:00:11.262Z,25.97
2023-05-05T15:02:38.039Z,28.43
2023-05-05T15:05:05.109Z,25.83
2023-05-05T15:07:31.794Z,26.18
2023-05-05T15:09:58.452Z,26.57
2023-05-05T15:12:27.621Z,28.36
2023-05-05T15:14:55.414Z,28.67
2023-05-05T15:17:22.304Z,30.64
2023-05-05T15:19:49.019Z,28.53
2023-05-05T15:22:15.709Z,27.00
2023-05-05T15:24:42.366Z,26.32
2023-05-05T15:27:09.244Z,27.47
2023-05-05T15:29:35.885Z,26.41
2023-05-05T15:32:02.533Z,28.05
2023-05-05T15:34:29.162Z,26.45
2023-05-05T15:36:56.074Z,29.00
2023-05-05T15:39:22.762Z,27.23
2023-05-05T15:41:49.395Z,26.30
2023-05-05T15:44:16.048Z,26.25
2023-05-05T15:46:42.719Z,26.72
2023-05-05T15:49:09.414Z,27.71
2023-05-05T15:51:36.202Z,27.51
2023-05-05T15:54:02.888Z,27.87
2023-05-05T15:56:29.711Z,29.88
2023-05-05T15:58:56.891Z,29.28
2023-05-05T16:01:23.503Z,29.39
2023-05-05T16:03:50.359Z,26.97
2023-05-05T16:06:16.933Z,27.07
2023-05-05T16:08:43.620Z,28.01
2023-05-05T16:11:10.635Z,28.70
2023-05-05T16:13:39.091Z,30.26
2023-05-05T16:16:06.835Z,28.90
2023-05-05T16:18:33.690Z,27.45
2023-05-05T16:21:00.331Z,28.51
2023-05-05T16:23:26.926Z,28.65
2023-05-05T16:25:53.494Z,28.88
2023-05-05T16:28:20.108Z,28.71
2023-05-05T16:30:46.880Z,29.63
2023-05-05T16:33:13.669Z,30.14
2023-05-05T16:35:40.416Z,28.95
2023-05-05T16:38:07.024Z,28.09
2023-05-05T16:40:37.101Z,29.46
2023-05-05T16:43:04.473Z,28.67
2023-05-05T16:45:31.352Z,29.16
2023-05-05T16:47:57.961Z,30.94
2023-05-05T16:50:24.606Z,31.21
2023-05-05T16:52:51.425Z,31.85
2023-05-05T16:55:18.256Z,33.02
2023-05-05T16:57:44.854Z,32.28
2023-05-05T17:00:12.186Z,30.90
2023-05-05T17:02:38.824Z,30.91
2023-05-05T17:05:06.236Z,31.16
2023-05-05T17:07:33.105Z,31.69
2023-05-05T17:09:59.748Z,33.36
2023-05-05T17:12:26.409Z,33.33
2023-05-05T17:14:53.029Z,33.25
2023-05-05T17:17:19.709Z,33.85
2023-05-05T17:19:46.292Z,32.57
2023-05-05T17:22:12.968Z,33.14
2023-05-05T17:24:39.617Z,34.33
2023-05-05T17:27:06.446Z,33.52
2023-05-05T17:29:36.732Z,37.39
2023-05-05T17:32:03.684Z,33.56
2023-05-05T17:34:30.439Z,35.88
2023-05-05T17:36:57.018Z,34.89
2023-05-05T17:39:23.745Z,33.62
2023-05-05T17:41:51.514Z,35.72
2023-05-05T17:44:18.105Z,36.78
2023-05-05T17:46:44.666Z,37.13
2023-05-05T17:49:11.237Z,35.97
2023-05-05T17:51:38.505Z,38.30
2023-05-05T17:54:05.369Z,37.49
2023-05-05T17:56:31.925Z,37.22
2023-05-05T17:58:58.527Z,38.64
2023-05-05T18:01:26.569Z,39.61
2023-05-05T18:03:53.359Z,39.41
2023-05-05T18:06:20.126Z,40.17
2023-05-05T18:08:46.770Z,41.41
2023-05-05T18:11:13.435Z,40.61
2023-05-05T18:13:40.140Z,40.47
2023-05-05T18:16:07.138Z,42.18
2023-05-05T18:18:35.323Z,44.40
2023-05-05T18:21:01.974Z,43.33
2023-05-05T18:23:28.698Z,43.88
2023-05-05T18:25:55.384Z,43.79
2023-05-05T18:28:21.956Z,44.72
2023-05-05T18:30:48.729Z,43.77
2023-05-05T18:33:15.951Z,43.55
2023-05-05T18:35:42.521Z,42.96
2023-05-05T18:38:09.135Z,43.12
2023-05-05T18:40:35.774Z,43.14
2023-05-05T18:43:02.367Z,44.31
2023-05-05T18:45:29.047Z,44.22
2023-05-05T18:47:56.369Z,43.34
2023-05-05T18:50:23.139Z,42.97
2023-05-05T18:52:49.733Z,44.26
2023-05-05T18:55:16.325Z,43.37
2023-05-05T18:57:42.915Z,43.97
2023-05-05T19:00:10.295Z,44.11
2023-05-05T19:02:37.710Z,43.82
2023-05-05T19:05:04.895Z,44.43
2023-05-05T19:07:34.898Z,43.18
2023-05-05T19:10:04.298Z,43.49
2023-05-05T19:12:30.966Z,43.25
2023-05-05T19:14:57.833Z,43.03
2023-05-05T19:17:24.393Z,43.06
2023-05-05T19:19:51.664Z,42.50
2023-05-05T19:22:18.326Z,43.73
2023-05-05T19:24:44.925Z,43.65
2023-05-05T19:27:15.472Z,44.15
2023-05-05T19:29:43.213Z,43.32
2023-05-05T19:32:09.869Z,45.06
2023-05-05T19:34:36.729Z,43.79
2023-05-05T19:37:03.360Z,44.00
2023-05-05T19:39:30.046Z,44.12
2023-05-05T19:41:56.598Z,45.03
2023-05-05T19:44:23.784Z,44.79
2023-05-05T19:46:52.658Z,45.07
2023-05-05T19:49:19.428Z,44.57
2023-05-05T19:51:47.600Z,44.34
2023-05-05T19:54:14.329Z,44.01
2023-05-05T19:56:41.001Z,43.66
2023-05-05T19:59:07.654Z,43.98
2023-05-05T20:01:35.216Z,44.41
2023-05-05T20:04:03.243Z,44.61
2023-05-05T20:06:29.853Z,44.22
2023-05-05T20:08:56.472Z,45.28
2023-05-05T20:11:25.772Z,43.92
2023-05-05T20:13:53.025Z,43.39
2023-05-05T20:16:20.043Z,45.93
2023-05-05T20:18:47.004Z,46.44
2023-05-05T20:21:14.758Z,45.72
2023-05-05T20:23:42.798Z,47.99
2023-05-05T20:26:09.639Z,47.44
2023-05-05T20:28:36.868Z,47.69
2023-05-05T20:31:03.592Z,46.61
2023-05-05T20:33:30.364Z,48.42
2023-05-05T20:35:57.148Z,47.44
2023-05-05T20:38:23.946Z,47.66
2023-05-05T20:40:52.043Z,49.49
2023-05-05T20:43:19.648Z,51.41
2023-05-05T20:45:46.544Z,51.06
2023-05-05T20:48:13.147Z,50.47
2023-05-05T20:50:42.851Z,50.77
2023-05-05T20:53:13.932Z,51.63
2023-05-05T20:55:41.032Z,52.88
2023-05-05T20:58:07.637Z,51.33
2023-05-05T21:00:34.416Z,52.65
2023-05-05T21:03:02.601Z,52.03
2023-05-05T21:05:29.508Z,51.19
2023-05-05T21:07:57.269Z,51.62
2023-05-05T21:10:25.050Z,52.12
2023-05-05T21:12:51.766Z,50.81
2023-05-05T21:15:18.419Z,53.29
2023-05-05T21:17:45.141Z,52.74
2023-05-05T21:20:12.495Z,52.06
2023-05-05T21:22:39.383Z,52.11
2023-05-05T21:25:16.760Z,51.49
2023-05-05T21:27:43.854Z,53.47
2023-05-05T21:30:11.773Z,51.29
2023-05-05T21:32:39.740Z,51.79
2023-05-05T21:35:07.905Z,52.73
2023-05-05T21:37:34.924Z,52.64
2023-05-05T21:40:01.693Z,53.08
2023-05-05T21:42:31.685Z,52.22
2023-05-05T21:44:58.291Z,53.09
2023-05-05T21:47:24.977Z,52.54
2023-05-05T21:49:51.571Z,53.54
2023-05-05T21:52:18.222Z,52.57
2023-05-05T21:54:44.990Z,52.86
2023-05-05T21:57:11.659Z,52.70
2023-05-05T21:59:38.317Z,52.44
2023-05-05T22:02:04.983Z,52.90
2023-05-05T22:04:31.583Z,53.77
2023-05-05T22:06:58.258Z,53.40
2023-05-05T22:09:24.844Z,53.29
2023-05-05T22:11:51.514Z,53.97
2023-05-05T22:14:18.158Z,53.58
2023-05-05T22:16:44.867Z,54.00
2023-05-05T22:19:11.570Z,54.41
2023-05-05T22:21:38.178Z,53.85
2023-05-05T22:24:05.302Z,53.73
2023-05-05T22:26:31.871Z,53.88
2023-05-05T22:28:58.476Z,52.48
2023-05-05T22:31:25.094Z,53.01
2023-05-05T22:33:51.634Z,53.62
2023-05-05T22:36:18.303Z,55.01
2023-05-05T22:38:44.933Z,54.97
2023-05-05T22:41:11.558Z,56.95
2023-05-05T22:43:38.897Z,55.40
2023-05-05T22:46:05.809Z,55.59
2023-05-05T22:48:32.416Z,54.81
2023-05-05T22:50:59.829Z,57.26
2023-05-05T22:53:26.549Z,57.80
2023-05-05T22:55:53.173Z,59.03
2023-05-05T22:58:20.905Z,61.94
2023-05-05T23:00:47.523Z,64.60
2023-05-05T23:03:14.439Z,65.59
2023-05-05T23:05:41.123Z,66.32
2023-05-05T23:08:07.716Z,67.56
2023-05-05T23:10:34.344Z,66.69
2023-05-05T23:13:01.033Z,67.90
2023-05-05T23:15:28.630Z,67.83
2023-05-05T23:17:55.428Z,69.82
2023-05-05T23:20:22.201Z,71.51
2023-05-05T23:22:48.899Z,73.62
2023-05-05T23:25:15.631Z,74.08
2023-05-05T23:27:42.234Z,76.04
2023-05-05T23:30:09.584Z,74.31
2023-05-05T23:32:36.392Z,75.23
2023-05-05T23:35:03.137Z,75.24
2023-05-05T23:37:29.766Z,74.60
2023-05-05T23:39:56.787Z,75.26
2023-05-05T23:42:24.444Z,76.73
2023-05-05T23:44:51.084Z,76.42
2023-05-05T23:47:17.798Z,76.13
2023-05-05T23:49:44.436Z,76.56
2023-05-05T23:52:11.278Z,78.03
2023-05-05T23:54:37.969Z,77.27
2023-05-05T23:57:04.660Z,77.61
2023-05-05T23:59:31.233Z,77.73
